Iona, Minnesota
Current Conditions -  °F | °C
As of 5:16 AM on Thursday 18 Dec 2014 (Local Time) from KDVP Reporting Station
Overcast Overcast  
Wind Chill: 11°   Ceiling: 6500
Heat Index: 11°   Visibility: 7mi
Dew Point: 11°   Wind: 0mph
Humidity: 98%   Direction: NA
Pressure: 30.22"   Gusts: NA
Location:  43.92°N, 95.78°W
Report Text: KDVP 181116Z AUTO 00000KT 7SM OVC065 M11/M12 A3022 RMK AO2 T11151118
Loading
Personal Weather Stations






























Interactive Weather Map New forecast layout! Learn more

10-Day Weather Forecast

Advertisements
Track Severe Weather on mobile